sensor_id;sensor_type;location;lat;lon;timestamp;P1;durP1;ratioP1;P2;durP2;ratioP2
36441;SDS011;64346;50.820;16.274;2023-07-30T00:00:11;6.35;;;2.88;;
36441;SDS011;64346;50.820;16.274;2023-07-30T00:03:01;6.07;;;2.80;;
36441;SDS011;64346;50.820;16.274;2023-07-30T00:05:31;7.03;;;3.07;;
36441;SDS011;64346;50.820;16.274;2023-07-30T00:07:58;5.22;;;2.47;;
36441;SDS011;64346;50.820;16.274;2023-07-30T00:10:25;6.00;;;2.80;;
36441;SDS011;64346;50.820;16.274;2023-07-30T00:12:52;4.50;;;2.55;;
36441;SDS011;64346;50.820;16.274;2023-07-30T00:15:20;5.28;;;2.72;;
36441;SDS011;64346;50.820;16.274;2023-07-30T00:17:47;5.25;;;2.55;;
36441;SDS011;64346;50.820;16.274;2023-07-30T00:20:15;6.47;;;2.63;;
36441;SDS011;64346;50.820;16.274;2023-07-30T00:22:42;6.40;;;2.80;;
36441;SDS011;64346;50.820;16.274;2023-07-30T00:25:10;5.35;;;2.67;;
36441;SDS011;64346;50.820;16.274;2023-07-30T00:27:37;7.38;;;2.97;;
36441;SDS011;64346;50.820;16.274;2023-07-30T00:30:05;6.00;;;2.90;;
36441;SDS011;64346;50.820;16.274;2023-07-30T00:32:32;4.78;;;2.95;;
36441;SDS011;64346;50.820;16.274;2023-07-30T00:34:59;6.60;;;2.88;;
36441;SDS011;64346;50.820;16.274;2023-07-30T00:37:27;4.93;;;2.40;;
36441;SDS011;64346;50.820;16.274;2023-07-30T00:39:54;4.90;;;2.55;;
36441;SDS011;64346;50.820;16.274;2023-07-30T00:42:24;5.80;;;2.30;;
36441;SDS011;64346;50.820;16.274;2023-07-30T00:44:53;4.53;;;2.28;;
36441;SDS011;64346;50.820;16.274;2023-07-30T00:47:23;5.57;;;2.60;;
36441;SDS011;64346;50.820;16.274;2023-07-30T00:49:50;6.28;;;3.13;;
36441;SDS011;64346;50.820;16.274;2023-07-30T00:52:18;6.95;;;3.58;;
36441;SDS011;64346;50.820;16.274;2023-07-30T00:54:50;5.38;;;2.80;;
36441;SDS011;64346;50.820;16.274;2023-07-30T00:57:18;6.63;;;3.53;;
36441;SDS011;64346;50.820;16.274;2023-07-30T00:59:49;6.57;;;3.63;;
36441;SDS011;64346;50.820;16.274;2023-07-30T01:02:17;5.70;;;3.45;;
36441;SDS011;64346;50.820;16.274;2023-07-30T01:04:46;8.13;;;3.60;;
36441;SDS011;64346;50.820;16.274;2023-07-30T01:07:13;7.45;;;3.55;;
36441;SDS011;64346;50.820;16.274;2023-07-30T01:09:40;10.15;;;3.50;;
36441;SDS011;64346;50.820;16.274;2023-07-30T01:12:08;6.78;;;3.40;;
36441;SDS011;64346;50.820;16.274;2023-07-30T01:14:36;9.18;;;3.83;;
36441;SDS011;64346;50.820;16.274;2023-07-30T01:17:06;6.60;;;3.50;;
36441;SDS011;64346;50.820;16.274;2023-07-30T01:19:33;8.57;;;3.47;;
36441;SDS011;64346;50.820;16.274;2023-07-30T01:22:03;7.03;;;3.67;;
36441;SDS011;64346;50.820;16.274;2023-07-30T01:24:30;7.18;;;3.95;;
36441;SDS011;64346;50.820;16.274;2023-07-30T01:27:07;5.93;;;3.33;;
36441;SDS011;64346;50.820;16.274;2023-07-30T01:32:50;6.85;;;2.70;;
36441;SDS011;64346;50.820;16.274;2023-07-30T01:35:22;7.32;;;3.00;;
36441;SDS011;64346;50.820;16.274;2023-07-30T01:37:53;5.93;;;3.17;;
36441;SDS011;64346;50.820;16.274;2023-07-30T01:40:24;6.53;;;3.33;;
36441;SDS011;64346;50.820;16.274;2023-07-30T01:42:51;7.70;;;3.60;;
36441;SDS011;64346;50.820;16.274;2023-07-30T01:45:19;7.50;;;3.35;;
36441;SDS011;64346;50.820;16.274;2023-07-30T01:47:46;7.78;;;3.28;;
36441;SDS011;64346;50.820;16.274;2023-07-30T01:50:18;6.25;;;3.10;;
36441;SDS011;64346;50.820;16.274;2023-07-30T01:52:48;8.73;;;3.72;;
36441;SDS011;64346;50.820;16.274;2023-07-30T01:55:15;8.70;;;3.60;;
36441;SDS011;64346;50.820;16.274;2023-07-30T01:57:42;10.15;;;3.97;;
36441;SDS011;64346;50.820;16.274;2023-07-30T02:00:13;6.72;;;3.70;;
36441;SDS011;64346;50.820;16.274;2023-07-30T02:02:40;10.02;;;3.92;;
36441;SDS011;64346;50.820;16.274;2023-07-30T02:05:07;8.02;;;3.78;;
36441;SDS011;64346;50.820;16.274;2023-07-30T02:07:34;13.30;;;7.75;;
36441;SDS011;64346;50.820;16.274;2023-07-30T02:10:04;13.95;;;7.45;;
36441;SDS011;64346;50.820;16.274;2023-07-30T02:12:32;14.70;;;6.43;;
36441;SDS011;64346;50.820;16.274;2023-07-30T02:15:01;14.35;;;7.68;;
36441;SDS011;64346;50.820;16.274;2023-07-30T02:17:29;15.93;;;7.25;;
36441;SDS011;64346;50.820;16.274;2023-07-30T02:19:59;12.68;;;6.85;;
36441;SDS011;64346;50.820;16.274;2023-07-30T02:22:26;14.55;;;7.65;;
36441;SDS011;64346;50.820;16.274;2023-07-30T02:24:53;16.90;;;8.93;;
36441;SDS011;64346;50.820;16.274;2023-07-30T02:27:24;14.07;;;8.60;;
36441;SDS011;64346;50.820;16.274;2023-07-30T02:29:53;14.95;;;8.18;;
36441;SDS011;64346;50.820;16.274;2023-07-30T02:32:21;15.25;;;8.25;;
36441;SDS011;64346;50.820;16.274;2023-07-30T02:34:48;14.27;;;7.32;;
36441;SDS011;64346;50.820;16.274;2023-07-30T02:37:15;14.32;;;8.20;;
36441;SDS011;64346;50.820;16.274;2023-07-30T02:39:45;13.95;;;7.68;;
36441;SDS011;64346;50.820;16.274;2023-07-30T02:42:12;13.57;;;7.10;;
36441;SDS011;64346;50.820;16.274;2023-07-30T02:44:40;15.55;;;8.50;;
36441;SDS011;64346;50.820;16.274;2023-07-30T02:47:07;13.43;;;7.95;;
36441;SDS011;64346;50.820;16.274;2023-07-30T02:49:34;13.25;;;7.40;;
36441;SDS011;64346;50.820;16.274;2023-07-30T02:52:01;12.90;;;7.03;;
36441;SDS011;64346;50.820;16.274;2023-07-30T02:54:29;12.60;;;6.63;;
36441;SDS011;64346;50.820;16.274;2023-07-30T02:56:56;11.77;;;6.47;;
36441;SDS011;64346;50.820;16.274;2023-07-30T02:59:24;11.15;;;5.90;;
36441;SDS011;64346;50.820;16.274;2023-07-30T03:01:51;12.18;;;5.95;;
36441;SDS011;64346;50.820;16.274;2023-07-30T03:04:20;11.77;;;5.45;;
36441;SDS011;64346;50.820;16.274;2023-07-30T03:06:50;10.98;;;5.85;;
36441;SDS011;64346;50.820;16.274;2023-07-30T03:09:22;10.65;;;4.55;;
36441;SDS011;64346;50.820;16.274;2023-07-30T03:11:49;10.38;;;4.55;;
36441;SDS011;64346;50.820;16.274;2023-07-30T03:14:17;8.40;;;4.18;;
36441;SDS011;64346;50.820;16.274;2023-07-30T03:16:44;7.07;;;3.45;;
36441;SDS011;64346;50.820;16.274;2023-07-30T03:19:12;7.35;;;3.58;;
36441;SDS011;64346;50.820;16.274;2023-07-30T03:21:39;9.80;;;3.90;;
36441;SDS011;64346;50.820;16.274;2023-07-30T03:24:07;10.50;;;5.00;;
36441;SDS011;64346;50.820;16.274;2023-07-30T03:26:37;10.57;;;4.53;;
36441;SDS011;64346;50.820;16.274;2023-07-30T03:29:04;8.80;;;4.47;;
36441;SDS011;64346;50.820;16.274;2023-07-30T03:31:34;9.77;;;4.75;;
36441;SDS011;64346;50.820;16.274;2023-07-30T03:34:02;9.43;;;4.78;;
36441;SDS011;64346;50.820;16.274;2023-07-30T03:36:29;10.20;;;4.80;;
36441;SDS011;64346;50.820;16.274;2023-07-30T03:38:57;7.55;;;4.30;;
36441;SDS011;64346;50.820;16.274;2023-07-30T03:41:24;9.57;;;4.95;;
36441;SDS011;64346;50.820;16.274;2023-07-30T03:43:52;9.23;;;4.18;;
36441;SDS011;64346;50.820;16.274;2023-07-30T03:46:26;10.70;;;4.63;;
36441;SDS011;64346;50.820;16.274;2023-07-30T03:48:54;8.00;;;3.75;;
36441;SDS011;64346;50.820;16.274;2023-07-30T03:51:21;7.60;;;3.70;;
36441;SDS011;64346;50.820;16.274;2023-07-30T03:53:49;7.40;;;3.55;;
36441;SDS011;64346;50.820;16.274;2023-07-30T03:56:18;6.72;;;3.38;;
36441;SDS011;64346;50.820;16.274;2023-07-30T03:58:45;6.68;;;3.30;;
36441;SDS011;64346;50.820;16.274;2023-07-30T04:01:12;6.47;;;3.30;;
36441;SDS011;64346;50.820;16.274;2023-07-30T04:03:42;7.55;;;3.35;;
36441;SDS011;64346;50.820;16.274;2023-07-30T04:06:10;5.55;;;3.10;;
36441;SDS011;64346;50.820;16.274;2023-07-30T04:08:37;8.90;;;3.75;;
36441;SDS011;64346;50.820;16.274;2023-07-30T04:11:07;7.78;;;3.63;;
36441;SDS011;64346;50.820;16.274;2023-07-30T04:13:34;9.52;;;3.28;;
36441;SDS011;64346;50.820;16.274;2023-07-30T04:16:01;8.95;;;3.60;;
36441;SDS011;64346;50.820;16.274;2023-07-30T04:18:34;7.70;;;3.15;;
36441;SDS011;64346;50.820;16.274;2023-07-30T04:21:03;6.87;;;3.47;;
36441;SDS011;64346;50.820;16.274;2023-07-30T04:23:31;10.23;;;3.42;;
36441;SDS011;64346;50.820;16.274;2023-07-30T04:25:58;8.05;;;3.30;;
36441;SDS011;64346;50.820;16.274;2023-07-30T04:28:25;6.70;;;3.25;;
36441;SDS011;64346;50.820;16.274;2023-07-30T04:30:55;6.35;;;3.10;;
36441;SDS011;64346;50.820;16.274;2023-07-30T04:33:27;5.38;;;2.72;;
36441;SDS011;64346;50.820;16.274;2023-07-30T04:35:54;5.13;;;2.60;;
36441;SDS011;64346;50.820;16.274;2023-07-30T04:38:24;7.50;;;3.65;;
36441;SDS011;64346;50.820;16.274;2023-07-30T04:40:51;7.18;;;3.08;;
36441;SDS011;64346;50.820;16.274;2023-07-30T04:43:19;6.50;;;2.95;;
36441;SDS011;64346;50.820;16.274;2023-07-30T04:45:46;6.55;;;2.60;;
36441;SDS011;64346;50.820;16.274;2023-07-30T04:48:13;10.75;;;5.40;;
36441;SDS011;64346;50.820;16.274;2023-07-30T04:50:40;10.18;;;4.30;;
36441;SDS011;64346;50.820;16.274;2023-07-30T04:53:08;5.13;;;2.28;;
36441;SDS011;64346;50.820;16.274;2023-07-30T04:55:35;5.18;;;2.42;;
36441;SDS011;64346;50.820;16.274;2023-07-30T04:58:03;4.70;;;2.10;;
36441;SDS011;64346;50.820;16.274;2023-07-30T05:00:30;5.22;;;2.05;;
36441;SDS011;64346;50.820;16.274;2023-07-30T05:02:57;4.53;;;2.13;;
36441;SDS011;64346;50.820;16.274;2023-07-30T05:05:25;5.60;;;1.98;;
36441;SDS011;64346;50.820;16.274;2023-07-30T05:07:54;5.25;;;2.25;;
36441;SDS011;64346;50.820;16.274;2023-07-30T05:10:21;5.65;;;2.60;;
36441;SDS011;64346;50.820;16.274;2023-07-30T05:12:49;5.10;;;2.17;;
36441;SDS011;64346;50.820;16.274;2023-07-30T05:15:18;4.50;;;2.47;;
36441;SDS011;64346;50.820;16.274;2023-07-30T05:17:45;6.40;;;2.97;;
36441;SDS011;64346;50.820;16.274;2023-07-30T05:20:13;3.58;;;2.33;;
36441;SDS011;64346;50.820;16.274;2023-07-30T05:22:43;5.22;;;2.65;;
36441;SDS011;64346;50.820;16.274;2023-07-30T05:25:10;3.78;;;2.10;;
36441;SDS011;64346;50.820;16.274;2023-07-30T05:27:40;3.97;;;2.03;;
36441;SDS011;64346;50.820;16.274;2023-07-30T05:30:09;4.28;;;2.25;;
36441;SDS011;64346;50.820;16.274;2023-07-30T05:32:37;4.88;;;2.08;;
36441;SDS011;64346;50.820;16.274;2023-07-30T05:35:04;5.03;;;2.75;;
36441;SDS011;64346;50.820;16.274;2023-07-30T05:37:32;8.07;;;3.10;;
36441;SDS011;64346;50.820;16.274;2023-07-30T05:40:02;8.00;;;3.22;;
36441;SDS011;64346;50.820;16.274;2023-07-30T05:42:30;8.57;;;3.63;;
36441;SDS011;64346;50.820;16.274;2023-07-30T05:44:59;7.72;;;3.53;;
36441;SDS011;64346;50.820;16.274;2023-07-30T05:47:26;5.65;;;2.60;;
36441;SDS011;64346;50.820;16.274;2023-07-30T05:49:54;5.95;;;3.00;;
36441;SDS011;64346;50.820;16.274;2023-07-30T05:52:21;7.07;;;3.00;;
36441;SDS011;64346;50.820;16.274;2023-07-30T05:54:48;5.28;;;2.60;;
36441;SDS011;64346;50.820;16.274;2023-07-30T05:57:16;6.80;;;3.00;;
36441;SDS011;64346;50.820;16.274;2023-07-30T05:59:43;6.60;;;3.10;;
36441;SDS011;64346;50.820;16.274;2023-07-30T06:02:11;5.18;;;2.65;;
36441;SDS011;64346;50.820;16.274;2023-07-30T06:04:40;3.60;;;1.98;;
36441;SDS011;64346;50.820;16.274;2023-07-30T06:07:07;2.28;;;1.80;;
36441;SDS011;64346;50.820;16.274;2023-07-30T06:09:36;2.65;;;1.90;;
36441;SDS011;64346;50.820;16.274;2023-07-30T06:12:04;2.10;;;1.40;;
36441;SDS011;64346;50.820;16.274;2023-07-30T06:14:34;3.88;;;2.13;;
36441;SDS011;64346;50.820;16.274;2023-07-30T06:17:03;1.77;;;1.42;;
36441;SDS011;64346;50.820;16.274;2023-07-30T06:19:34;2.03;;;1.50;;
36441;SDS011;64346;50.820;16.274;2023-07-30T06:22:01;1.60;;;1.43;;
36441;SDS011;64346;50.820;16.274;2023-07-30T06:24:33;1.90;;;1.63;;
36441;SDS011;64346;50.820;16.274;2023-07-30T06:27:03;1.73;;;1.42;;
36441;SDS011;64346;50.820;16.274;2023-07-30T06:29:33;3.63;;;2.00;;
36441;SDS011;64346;50.820;16.274;2023-07-30T06:32:01;6.57;;;2.70;;
36441;SDS011;64346;50.820;16.274;2023-07-30T06:34:28;2.33;;;1.88;;
36441;SDS011;64346;50.820;16.274;2023-07-30T06:36:55;2.80;;;1.70;;
36441;SDS011;64346;50.820;16.274;2023-07-30T06:39:25;2.15;;;1.60;;
36441;SDS011;64346;50.820;16.274;2023-07-30T06:41:58;3.67;;;1.67;;
36441;SDS011;64346;50.820;16.274;2023-07-30T06:44:25;1.75;;;1.65;;
36441;SDS011;64346;50.820;16.274;2023-07-30T06:47:01;3.53;;;1.90;;
36441;SDS011;64346;50.820;16.274;2023-07-30T06:49:28;5.03;;;2.75;;
36441;SDS011;64346;50.820;16.274;2023-07-30T06:51:56;4.68;;;3.03;;
36441;SDS011;64346;50.820;16.274;2023-07-30T06:54:26;4.57;;;2.30;;
36441;SDS011;64346;50.820;16.274;2023-07-30T06:56:57;2.65;;;1.85;;
36441;SDS011;64346;50.820;16.274;2023-07-30T06:59:27;3.03;;;1.92;;
36441;SDS011;64346;50.820;16.274;2023-07-30T07:01:55;2.00;;;1.65;;
36441;SDS011;64346;50.820;16.274;2023-07-30T07:04:22;2.78;;;1.90;;
36441;SDS011;64346;50.820;16.274;2023-07-30T07:06:50;2.05;;;1.83;;
36441;SDS011;64346;50.820;16.274;2023-07-30T07:09:17;3.50;;;2.05;;
36441;SDS011;64346;50.820;16.274;2023-07-30T07:11:48;2.45;;;1.70;;
36441;SDS011;64346;50.820;16.274;2023-07-30T07:14:26;3.28;;;1.75;;
36441;SDS011;64346;50.820;16.274;2023-07-30T07:17:03;2.60;;;1.70;;
36441;SDS011;64346;50.820;16.274;2023-07-30T07:19:33;3.20;;;1.65;;
36441;SDS011;64346;50.820;16.274;2023-07-30T07:22:01;2.90;;;2.00;;
36441;SDS011;64346;50.820;16.274;2023-07-30T07:24:28;2.75;;;2.10;;
36441;SDS011;64346;50.820;16.274;2023-07-30T07:26:56;3.55;;;1.95;;
36441;SDS011;64346;50.820;16.274;2023-07-30T07:29:24;2.88;;;1.83;;
36441;SDS011;64346;50.820;16.274;2023-07-30T07:31:54;3.05;;;1.90;;
36441;SDS011;64346;50.820;16.274;2023-07-30T07:34:21;3.03;;;2.03;;
36441;SDS011;64346;50.820;16.274;2023-07-30T07:36:49;2.67;;;1.95;;
36441;SDS011;64346;50.820;16.274;2023-07-30T07:39:16;2.13;;;1.75;;
36441;SDS011;64346;50.820;16.274;2023-07-30T07:41:43;2.42;;;1.75;;
36441;SDS011;64346;50.820;16.274;2023-07-30T07:44:11;1.83;;;1.67;;
36441;SDS011;64346;50.820;16.274;2023-07-30T07:46:38;3.22;;;2.05;;
36441;SDS011;64346;50.820;16.274;2023-07-30T07:49:05;3.67;;;2.13;;
36441;SDS011;64346;50.820;16.274;2023-07-30T07:51:35;3.55;;;2.08;;
36441;SDS011;64346;50.820;16.274;2023-07-30T07:54:03;4.47;;;1.73;;
36441;SDS011;64346;50.820;16.274;2023-07-30T07:56:30;4.07;;;2.40;;
36441;SDS011;64346;50.820;16.274;2023-07-30T07:58:58;4.10;;;2.10;;
36441;SDS011;64346;50.820;16.274;2023-07-30T08:01:25;3.33;;;2.13;;
36441;SDS011;64346;50.820;16.274;2023-07-30T08:03:55;2.45;;;1.90;;
36441;SDS011;64346;50.820;16.274;2023-07-30T08:06:22;3.30;;;2.15;;
36441;SDS011;64346;50.820;16.274;2023-07-30T08:08:49;2.05;;;1.85;;
36441;SDS011;64346;50.820;16.274;2023-07-30T08:11:17;4.38;;;1.90;;
36441;SDS011;64346;50.820;16.274;2023-07-30T08:13:50;2.83;;;2.00;;
36441;SDS011;64346;50.820;16.274;2023-07-30T08:16:17;2.70;;;2.00;;
36441;SDS011;64346;50.820;16.274;2023-07-30T08:18:47;1.90;;;1.70;;
36441;SDS011;64346;50.820;16.274;2023-07-30T08:21:16;2.85;;;1.98;;
36441;SDS011;64346;50.820;16.274;2023-07-30T08:23:45;2.70;;;1.70;;
36441;SDS011;64346;50.820;16.274;2023-07-30T08:26:13;2.60;;;1.60;;
36441;SDS011;64346;50.820;16.274;2023-07-30T08:28:40;4.47;;;3.25;;
36441;SDS011;64346;50.820;16.274;2023-07-30T08:31:08;3.90;;;2.45;;
36441;SDS011;64346;50.820;16.274;2023-07-30T08:33:37;6.60;;;2.47;;
36441;SDS011;64346;50.820;16.274;2023-07-30T08:36:04;3.35;;;2.20;;
36441;SDS011;64346;50.820;16.274;2023-07-30T08:38:36;3.17;;;2.58;;
36441;SDS011;64346;50.820;16.274;2023-07-30T08:41:13;4.13;;;2.63;;
36441;SDS011;64346;50.820;16.274;2023-07-30T08:43:42;4.55;;;2.50;;
36441;SDS011;64346;50.820;16.274;2023-07-30T08:46:11;2.50;;;1.90;;
36441;SDS011;64346;50.820;16.274;2023-07-30T08:48:38;3.72;;;1.95;;
36441;SDS011;64346;50.820;16.274;2023-07-30T08:51:05;3.63;;;1.85;;
36441;SDS011;64346;50.820;16.274;2023-07-30T08:53:32;2.42;;;1.70;;
36441;SDS011;64346;50.820;16.274;2023-07-30T08:56:05;2.88;;;2.00;;
36441;SDS011;64346;50.820;16.274;2023-07-30T08:58:46;2.42;;;2.05;;
36441;SDS011;64346;50.820;16.274;2023-07-30T09:01:15;3.35;;;2.10;;
36441;SDS011;64346;50.820;16.274;2023-07-30T09:03:46;4.60;;;2.22;;
36441;SDS011;64346;50.820;16.274;2023-07-30T09:06:16;3.33;;;2.28;;
36441;SDS011;64346;50.820;16.274;2023-07-30T09:08:43;4.40;;;2.70;;
36441;SDS011;64346;50.820;16.274;2023-07-30T09:11:13;4.88;;;2.85;;
36441;SDS011;64346;50.820;16.274;2023-07-30T09:13:42;3.60;;;2.20;;
36441;SDS011;64346;50.820;16.274;2023-07-30T09:16:17;3.00;;;2.17;;
36441;SDS011;64346;50.820;16.274;2023-07-30T09:18:45;2.83;;;2.20;;
36441;SDS011;64346;50.820;16.274;2023-07-30T09:21:17;3.95;;;2.80;;
36441;SDS011;64346;50.820;16.274;2023-07-30T09:23:47;4.22;;;2.80;;
36441;SDS011;64346;50.820;16.274;2023-07-30T09:26:14;4.75;;;2.65;;
36441;SDS011;64346;50.820;16.274;2023-07-30T09:28:41;5.45;;;2.58;;
36441;SDS011;64346;50.820;16.274;2023-07-30T09:31:11;5.18;;;3.10;;
36441;SDS011;64346;50.820;16.274;2023-07-30T09:33:59;5.47;;;2.80;;
36441;SDS011;64346;50.820;16.274;2023-07-30T09:36:26;4.97;;;2.50;;
36441;SDS011;64346;50.820;16.274;2023-07-30T09:38:53;4.30;;;2.60;;
36441;SDS011;64346;50.820;16.274;2023-07-30T09:41:21;5.10;;;2.90;;
36441;SDS011;64346;50.820;16.274;2023-07-30T09:43:57;3.72;;;2.15;;
36441;SDS011;64346;50.820;16.274;2023-07-30T09:46:28;3.60;;;2.28;;
36441;SDS011;64346;50.820;16.274;2023-07-30T09:48:56;7.45;;;3.75;;
36441;SDS011;64346;50.820;16.274;2023-07-30T09:51:27;6.57;;;3.35;;
36441;SDS011;64346;50.820;16.274;2023-07-30T09:53:55;6.80;;;3.20;;
36441;SDS011;64346;50.820;16.274;2023-07-30T09:56:23;6.82;;;3.53;;
36441;SDS011;64346;50.820;16.274;2023-07-30T09:58:50;3.50;;;2.30;;
36441;SDS011;64346;50.820;16.274;2023-07-30T10:01:18;4.10;;;2.40;;
36441;SDS011;64346;50.820;16.274;2023-07-30T10:03:50;5.10;;;2.42;;
36441;SDS011;64346;50.820;16.274;2023-07-30T10:06:19;5.47;;;2.80;;
36441;SDS011;64346;50.820;16.274;2023-07-30T10:08:50;3.38;;;2.22;;
36441;SDS011;64346;50.820;16.274;2023-07-30T10:11:19;4.70;;;2.50;;
36441;SDS011;64346;50.820;16.274;2023-07-30T10:13:50;4.95;;;3.08;;
36441;SDS011;64346;50.820;16.274;2023-07-30T10:16:18;4.78;;;3.13;;
36441;SDS011;64346;50.820;16.274;2023-07-30T10:18:57;4.60;;;2.90;;
36441;SDS011;64346;50.820;16.274;2023-07-30T10:21:47;4.22;;;2.95;;
36441;SDS011;64346;50.820;16.274;2023-07-30T10:24:16;7.40;;;5.18;;
36441;SDS011;64346;50.820;16.274;2023-07-30T10:26:47;5.88;;;3.13;;
36441;SDS011;64346;50.820;16.274;2023-07-30T10:31:54;5.82;;;2.53;;
36441;SDS011;64346;50.820;16.274;2023-07-30T10:34:26;4.88;;;3.10;;
36441;SDS011;64346;50.820;16.274;2023-07-30T10:37:10;5.35;;;3.25;;
36441;SDS011;64346;50.820;16.274;2023-07-30T10:39:39;4.85;;;3.08;;
36441;SDS011;64346;50.820;16.274;2023-07-30T10:42:10;5.50;;;2.88;;
36441;SDS011;64346;50.820;16.274;2023-07-30T10:44:37;4.60;;;2.75;;
36441;SDS011;64346;50.820;16.274;2023-07-30T10:47:11;5.03;;;2.92;;
36441;SDS011;64346;50.820;16.274;2023-07-30T10:50:00;5.88;;;3.50;;
36441;SDS011;64346;50.820;16.274;2023-07-30T10:52:28;3.92;;;2.80;;
36441;SDS011;64346;50.820;16.274;2023-07-30T10:55:01;7.05;;;3.00;;
36441;SDS011;64346;50.820;16.274;2023-07-30T10:57:34;5.43;;;2.72;;
36441;SDS011;64346;50.820;16.274;2023-07-30T11:00:01;7.28;;;2.83;;
36441;SDS011;64346;50.820;16.274;2023-07-30T11:02:29;7.47;;;3.28;;
36441;SDS011;64346;50.820;16.274;2023-07-30T11:05:10;7.25;;;3.22;;
36441;SDS011;64346;50.820;16.274;2023-07-30T11:07:38;9.27;;;3.53;;
36441;SDS011;64346;50.820;16.274;2023-07-30T11:10:08;7.65;;;3.30;;
36441;SDS011;64346;50.820;16.274;2023-07-30T11:12:41;5.35;;;2.90;;
36441;SDS011;64346;50.820;16.274;2023-07-30T11:15:09;6.68;;;3.63;;
36441;SDS011;64346;50.820;16.274;2023-07-30T11:17:37;6.82;;;3.42;;
36441;SDS011;64346;50.820;16.274;2023-07-30T11:20:07;6.95;;;3.47;;
36441;SDS011;64346;50.820;16.274;2023-07-30T11:22:48;6.18;;;3.53;;
36441;SDS011;64346;50.820;16.274;2023-07-30T11:25:18;5.80;;;3.40;;
36441;SDS011;64346;50.820;16.274;2023-07-30T11:30:14;10.48;;;4.70;;
36441;SDS011;64346;50.820;16.274;2023-07-30T11:32:42;8.43;;;4.10;;
36441;SDS011;64346;50.820;16.274;2023-07-30T11:35:10;8.93;;;3.85;;
36441;SDS011;64346;50.820;16.274;2023-07-30T11:37:46;7.85;;;4.80;;
36441;SDS011;64346;50.820;16.274;2023-07-30T11:40:13;8.23;;;4.93;;
36441;SDS011;64346;50.820;16.274;2023-07-30T11:42:43;10.60;;;5.35;;
36441;SDS011;64346;50.820;16.274;2023-07-30T11:45:23;7.95;;;4.80;;
36441;SDS011;64346;50.820;16.274;2023-07-30T11:47:53;8.18;;;4.95;;
36441;SDS011;64346;50.820;16.274;2023-07-30T11:50:20;9.80;;;5.55;;
36441;SDS011;64346;50.820;16.274;2023-07-30T11:52:52;8.65;;;5.40;;
36441;SDS011;64346;50.820;16.274;2023-07-30T11:55:22;7.68;;;5.40;;
36441;SDS011;64346;50.820;16.274;2023-07-30T11:57:55;9.57;;;5.13;;
36441;SDS011;64346;50.820;16.274;2023-07-30T12:00:27;9.97;;;6.10;;
36441;SDS011;64346;50.820;16.274;2023-07-30T12:02:55;10.07;;;6.68;;
36441;SDS011;64346;50.820;16.274;2023-07-30T12:05:31;10.00;;;5.35;;
36441;SDS011;64346;50.820;16.274;2023-07-30T12:08:02;7.60;;;5.32;;
36441;SDS011;64346;50.820;16.274;2023-07-30T12:10:43;6.88;;;4.65;;
36441;SDS011;64346;50.820;16.274;2023-07-30T12:13:20;6.03;;;4.07;;
36441;SDS011;64346;50.820;16.274;2023-07-30T12:15:53;6.05;;;4.07;;
36441;SDS011;64346;50.820;16.274;2023-07-30T12:18:24;6.57;;;4.22;;
36441;SDS011;64346;50.820;16.274;2023-07-30T12:20:54;6.03;;;4.15;;
36441;SDS011;64346;50.820;16.274;2023-07-30T12:23:22;5.72;;;3.92;;
36441;SDS011;64346;50.820;16.274;2023-07-30T12:25:50;8.75;;;4.85;;
36441;SDS011;64346;50.820;16.274;2023-07-30T12:28:20;6.47;;;4.00;;
36441;SDS011;64346;50.820;16.274;2023-07-30T12:30:50;6.10;;;3.92;;
36441;SDS011;64346;50.820;16.274;2023-07-30T12:33:17;10.25;;;6.25;;
36441;SDS011;64346;50.820;16.274;2023-07-30T12:35:49;4.85;;;3.58;;
36441;SDS011;64346;50.820;16.274;2023-07-30T12:38:22;5.70;;;3.67;;
36441;SDS011;64346;50.820;16.274;2023-07-30T12:40:49;5.75;;;4.00;;
36441;SDS011;64346;50.820;16.274;2023-07-30T12:43:17;6.22;;;4.20;;
36441;SDS011;64346;50.820;16.274;2023-07-30T12:45:44;6.97;;;3.75;;
36441;SDS011;64346;50.820;16.274;2023-07-30T12:48:11;7.32;;;4.65;;
36441;SDS011;64346;50.820;16.274;2023-07-30T12:50:39;8.95;;;4.95;;
36441;SDS011;64346;50.820;16.274;2023-07-30T12:53:06;6.15;;;3.85;;
36441;SDS011;64346;50.820;16.274;2023-07-30T12:55:33;7.22;;;4.20;;
36441;SDS011;64346;50.820;16.274;2023-07-30T12:58:01;6.97;;;4.60;;
36441;SDS011;64346;50.820;16.274;2023-07-30T13:00:28;6.65;;;4.32;;
36441;SDS011;64346;50.820;16.274;2023-07-30T13:02:55;7.13;;;4.53;;
36441;SDS011;64346;50.820;16.274;2023-07-30T13:05:28;9.00;;;5.45;;
36441;SDS011;64346;50.820;16.274;2023-07-30T13:07:58;6.63;;;4.60;;
36441;SDS011;64346;50.820;16.274;2023-07-30T13:10:31;8.98;;;5.38;;
36441;SDS011;64346;50.820;16.274;2023-07-30T13:12:58;7.20;;;4.88;;
36441;SDS011;64346;50.820;16.274;2023-07-30T13:15:25;8.20;;;5.03;;
36441;SDS011;64346;50.820;16.274;2023-07-30T13:17:56;8.35;;;5.25;;
36441;SDS011;64346;50.820;16.274;2023-07-30T13:20:23;9.40;;;4.90;;
36441;SDS011;64346;50.820;16.274;2023-07-30T13:22:51;7.68;;;4.88;;
36441;SDS011;64346;50.820;16.274;2023-07-30T13:25:18;6.85;;;4.53;;
36441;SDS011;64346;50.820;16.274;2023-07-30T13:27:48;7.63;;;5.05;;
36441;SDS011;64346;50.820;16.274;2023-07-30T13:30:17;7.93;;;5.63;;
36441;SDS011;64346;50.820;16.274;2023-07-30T13:32:48;8.02;;;4.75;;
36441;SDS011;64346;50.820;16.274;2023-07-30T13:35:15;7.63;;;4.85;;
36441;SDS011;64346;50.820;16.274;2023-07-30T13:37:42;7.43;;;4.85;;
36441;SDS011;64346;50.820;16.274;2023-07-30T13:40:10;7.18;;;4.82;;
36441;SDS011;64346;50.820;16.274;2023-07-30T13:42:39;6.82;;;4.43;;
36441;SDS011;64346;50.820;16.274;2023-07-30T13:45:06;7.85;;;4.60;;
36441;SDS011;64346;50.820;16.274;2023-07-30T13:47:36;6.65;;;4.57;;
36441;SDS011;64346;50.820;16.274;2023-07-30T13:50:04;8.35;;;4.57;;
36441;SDS011;64346;50.820;16.274;2023-07-30T13:52:34;8.27;;;4.43;;
36441;SDS011;64346;50.820;16.274;2023-07-30T13:55:04;7.80;;;5.10;;
36441;SDS011;64346;50.820;16.274;2023-07-30T13:57:31;7.03;;;4.32;;
36441;SDS011;64346;50.820;16.274;2023-07-30T14:00:02;7.55;;;4.57;;
36441;SDS011;64346;50.820;16.274;2023-07-30T14:02:32;7.78;;;4.63;;
36441;SDS011;64346;50.820;16.274;2023-07-30T14:05:03;8.30;;;4.80;;
36441;SDS011;64346;50.820;16.274;2023-07-30T14:07:33;9.07;;;4.45;;
36441;SDS011;64346;50.820;16.274;2023-07-30T14:10:02;7.57;;;4.70;;
36441;SDS011;64346;50.820;16.274;2023-07-30T14:12:32;7.25;;;4.30;;
36441;SDS011;64346;50.820;16.274;2023-07-30T14:14:59;8.00;;;4.93;;
36441;SDS011;64346;50.820;16.274;2023-07-30T14:17:28;7.60;;;5.03;;
36441;SDS011;64346;50.820;16.274;2023-07-30T14:19:56;5.85;;;4.20;;
36441;SDS011;64346;50.820;16.274;2023-07-30T14:22:23;8.70;;;4.90;;
36441;SDS011;64346;50.820;16.274;2023-07-30T14:24:50;8.35;;;4.80;;
36441;SDS011;64346;50.820;16.274;2023-07-30T14:27:20;7.90;;;4.93;;
36441;SDS011;64346;50.820;16.274;2023-07-30T14:29:50;9.70;;;6.15;;
36441;SDS011;64346;50.820;16.274;2023-07-30T14:32:23;9.20;;;5.80;;
36441;SDS011;64346;50.820;16.274;2023-07-30T14:34:53;7.88;;;5.10;;
36441;SDS011;64346;50.820;16.274;2023-07-30T14:37:20;8.63;;;4.97;;
36441;SDS011;64346;50.820;16.274;2023-07-30T14:39:47;8.02;;;5.10;;
36441;SDS011;64346;50.820;16.274;2023-07-30T14:42:17;8.65;;;5.15;;
36441;SDS011;64346;50.820;16.274;2023-07-30T14:44:44;8.70;;;5.70;;
36441;SDS011;64346;50.820;16.274;2023-07-30T14:47:11;8.32;;;5.20;;
36441;SDS011;64346;50.820;16.274;2023-07-30T14:49:39;7.95;;;5.00;;
36441;SDS011;64346;50.820;16.274;2023-07-30T14:52:06;7.25;;;4.78;;